Time;durP1;ratioP1;P1;durP2;ratioP2;P2;SDS_P1;SDS_P2;PMS_P1;PMS_P2;Temp;Humidity;BMP_temperature;BMP_pressure;BME280_temperature;BME280_humidity;BME280_pressure;Samples;Min_cycle;Max_cycle;Signal;HPM_P1;HPM_P2
2024/01/17 00:01:37;;;;;;;8.17;3.90;;;;;;;-1.72;100.00;99852.56;10407347;28;20041;-73
2024/01/17 00:06:38;;;;;;;7.97;4.60;;;;;;;-1.45;100.00;99897.59;10411332;28;20045;-72
2024/01/17 00:11:38;;;;;;;11.30;4.07;;;;;;;-1.53;100.00;99880.69;10412583;28;20041;-70
2024/01/17 00:16:39;;;;;;;10.53;4.00;;;;;;;-1.46;100.00;99904.00;10404796;28;20146;-72
2024/01/17 00:21:40;;;;;;;7.40;4.37;;;;;;;-1.43;100.00;99890.13;10401669;28;20041;-72
2024/01/17 00:26:40;;;;;;;7.77;3.43;;;;;;;-1.48;100.00;99892.56;10414099;28;20041;-73
2024/01/17 00:31:41;;;;;;;7.17;3.20;;;;;;;-1.47;100.00;99882.59;10411634;28;20037;-73
2024/01/17 00:36:41;;;;;;;8.83;4.07;;;;;;;-1.57;100.00;99866.78;10413368;28;20128;-73
2024/01/17 00:41:42;;;;;;;8.60;3.63;;;;;;;-1.57;100.00;99864.09;10410487;28;20048;-73
2024/01/17 00:46:42;;;;;;;6.07;3.53;;;;;;;-1.65;100.00;99843.50;10412773;28;20044;-73
2024/01/17 00:51:42;;;;;;;7.50;4.13;;;;;;;-1.72;100.00;99837.22;10413960;28;20045;-73
2024/01/17 00:56:43;;;;;;;8.83;3.90;;;;;;;-1.84;100.00;99812.69;10413910;28;20044;-73
2024/01/17 01:01:43;;;;;;;10.23;3.73;;;;;;;-1.79;100.00;99825.56;10415397;28;20076;-73
2024/01/17 01:06:44;;;;;;;13.27;3.80;;;;;;;-1.76;100.00;99824.31;10430508;28;20048;-74
2024/01/17 01:11:44;;;;;;;6.37;4.13;;;;;;;-1.72;100.00;99823.72;10413312;28;20042;-73
2024/01/17 01:16:45;;;;;;;11.93;4.43;;;;;;;-1.68;100.00;99818.75;10428199;28;20045;-74
2024/01/17 01:21:45;;;;;;;7.97;4.30;;;;;;;-1.70;100.00;99810.88;10414144;28;20056;-73
2024/01/17 01:26:46;;;;;;;8.13;4.87;;;;;;;-1.70;100.00;99797.38;10414554;28;20271;-73
2024/01/17 01:31:46;;;;;;;8.73;4.30;;;;;;;-1.66;100.00;99787.00;10414593;28;20037;-73
2024/01/17 01:36:47;;;;;;;10.67;5.70;;;;;;;-1.64;100.00;99788.47;10414849;28;20041;-74
2024/01/17 01:41:47;;;;;;;16.07;5.37;;;;;;;-1.60;100.00;99777.28;10420145;28;20056;-73
2024/01/17 01:46:47;;;;;;;14.03;5.70;;;;;;;-1.57;100.00;99777.72;10420732;28;20041;-73
2024/01/17 01:51:48;;;;;;;11.33;5.27;;;;;;;-1.58;100.00;99767.94;10417294;28;20033;-73
2024/01/17 01:56:49;;;;;;;12.10;5.83;;;;;;;-1.55;100.00;99751.38;10417371;28;20046;-72
2024/01/17 02:01:49;;;;;;;9.43;5.63;;;;;;;-1.56;100.00;99749.69;10419344;28;20038;-72
2024/01/17 02:06:50;;;;;;;11.17;6.00;;;;;;;-1.60;100.00;99745.72;10419347;28;20419;-74
2024/01/17 02:11:50;;;;;;;11.73;6.27;;;;;;;-1.59;100.00;99742.00;10416476;28;20038;-73
2024/01/17 02:16:51;;;;;;;10.60;5.47;;;;;;;-1.63;100.00;99741.56;10418463;28;20045;-72
2024/01/17 02:21:52;;;;;;;13.80;6.57;;;;;;;-1.68;100.00;99729.72;10417717;28;20392;-73
2024/01/17 02:26:52;;;;;;;14.07;7.00;;;;;;;-1.65;100.00;99729.31;10420081;28;20037;-72
2024/01/17 02:31:53;;;;;;;12.00;6.97;;;;;;;-1.67;100.00;99720.59;10420055;28;20033;-73
2024/01/17 02:36:53;;;;;;;14.17;7.20;;;;;;;-1.64;100.00;99726.41;10417466;28;20056;-73
2024/01/17 02:41:54;;;;;;;12.43;7.33;;;;;;;-1.60;100.00;99716.03;10398364;28;20052;-75
2024/01/17 02:46:54;;;;;;;14.47;7.27;;;;;;;-1.64;100.00;99718.31;10416176;28;20146;-73
2024/01/17 02:51:55;;;;;;;17.93;9.60;;;;;;;-1.64;100.00;99709.38;10416827;28;20046;-73
2024/01/17 02:56:55;;;;;;;17.23;8.33;;;;;;;-1.65;100.00;99699.63;10417731;28;20073;-73
2024/01/17 03:01:58;;;;;;;16.47;8.73;;;;;;;-1.68;100.00;99681.13;10432695;28;20038;-73
2024/01/17 03:06:58;;;;;;;15.73;8.63;;;;;;;-1.66;100.00;99673.66;10418410;28;20042;-73
2024/01/17 03:11:59;;;;;;;15.27;9.17;;;;;;;-1.68;100.00;99659.56;10417269;28;20041;-75
2024/01/17 03:16:59;;;;;;;17.43;9.57;;;;;;;-1.74;100.00;99646.88;10417782;28;20040;-73
2024/01/17 03:22:01;;;;;;;18.57;9.30;;;;;;;-1.77;100.00;99633.81;10400806;28;20627;-75
2024/01/17 03:27:02;;;;;;;21.03;8.97;;;;;;;-1.76;100.00;99635.44;10416972;28;20037;-75
2024/01/17 03:32:03;;;;;;;20.30;9.57;;;;;;;-1.79;100.00;99619.69;10416036;28;20037;-75
2024/01/17 03:37:03;;;;;;;19.23;10.30;;;;;;;-1.92;100.00;99597.03;10417283;28;20045;-73
2024/01/17 03:42:04;;;;;;;16.73;9.97;;;;;;;-1.87;100.00;99609.91;10417289;28;20567;-75
2024/01/17 03:47:04;;;;;;;14.10;8.97;;;;;;;-1.88;100.00;99606.38;10416750;28;20040;-75
2024/01/17 03:52:05;;;;;;;18.73;10.03;;;;;;;-1.98;100.00;99605.13;10415366;28;20539;-73
2024/01/17 03:57:08;;;;;;;14.13;9.17;;;;;;;-2.11;100.00;99573.53;10414466;28;20548;-74
2024/01/17 04:02:08;;;;;;;19.57;9.53;;;;;;;-1.96;100.00;99571.50;10406450;28;20044;-74
2024/01/17 04:07:09;;;;;;;16.60;9.20;;;;;;;-1.97;100.00;99567.13;10411557;28;20034;-74
2024/01/17 04:12:09;;;;;;;20.10;9.00;;;;;;;-1.97;100.00;99563.63;10410595;28;20045;-74
2024/01/17 04:17:13;;;;;;;25.73;8.90;;;;;;;-1.99;100.00;99539.53;10411754;28;20029;-74
2024/01/17 04:22:14;;;;;;;17.87;9.37;;;;;;;-1.98;100.00;99546.63;10414970;28;20045;-74
2024/01/17 04:27:14;;;;;;;16.37;9.93;;;;;;;-1.93;100.00;99543.28;10412371;28;20037;-73
2024/01/17 04:32:15;;;;;;;23.33;9.77;;;;;;;-2.04;100.00;99510.50;10409230;28;20124;-74
2024/01/17 04:37:16;;;;;;;15.30;8.20;;;;;;;-2.01;100.00;99522.72;10412040;28;20041;-71
2024/01/17 04:42:16;;;;;;;15.60;8.60;;;;;;;-2.02;100.00;99518.41;10405921;28;20511;-74
2024/01/17 04:47:16;;;;;;;15.33;8.20;;;;;;;-2.03;100.00;99509.47;10365999;28;20147;-73
2024/01/17 04:52:18;;;;;;;16.97;9.10;;;;;;;-2.04;100.00;99504.28;10398138;28;20040;-74
2024/01/17 04:57:18;;;;;;;14.03;8.60;;;;;;;-2.11;100.00;99503.44;10414994;28;20045;-74
2024/01/17 05:02:19;;;;;;;16.83;8.73;;;;;;;-2.13;100.00;99495.56;10413530;28;20033;-74
2024/01/17 05:07:19;;;;;;;13.53;8.17;;;;;;;-2.16;100.00;99474.41;10413587;28;20037;-75
2024/01/17 05:12:20;;;;;;;14.07;8.33;;;;;;;-2.16;100.00;99470.88;10415323;28;20041;-75
2024/01/17 05:17:20;;;;;;;13.10;7.83;;;;;;;-2.15;100.00;99464.44;10420715;28;20034;-75
2024/01/17 05:22:21;;;;;;;13.23;7.87;;;;;;;-2.16;100.00;99462.78;10413363;28;20033;-75
2024/01/17 05:27:21;;;;;;;15.67;7.87;;;;;;;-2.13;100.00;99452.44;10421211;28;20050;-73
2024/01/17 05:32:21;;;;;;;15.57;7.83;;;;;;;-2.13;100.00;99436.25;10422301;28;20117;-74
2024/01/17 05:37:23;;;;;;;12.80;8.17;;;;;;;-2.19;100.00;99434.38;10419120;28;20060;-75
2024/01/17 05:42:24;;;;;;;16.57;8.03;;;;;;;-2.13;100.00;99427.31;10420533;28;20076;-74
2024/01/17 05:47:24;;;;;;;16.93;7.93;;;;;;;-2.19;100.00;99420.03;10419551;28;20099;-75
2024/01/17 05:52:25;;;;;;;15.37;7.47;;;;;;;-2.17;100.00;99417.97;10421237;28;20061;-75
2024/01/17 05:57:26;;;;;;;14.90;7.83;;;;;;;-2.13;100.00;99392.25;10435846;28;20072;-75
2024/01/17 06:02:26;;;;;;;13.93;8.00;;;;;;;-2.12;100.00;99389.34;10419410;28;20033;-75
2024/01/17 06:07:26;;;;;;;14.03;8.47;;;;;;;-2.12;100.00;99378.56;10419302;28;20087;-75
2024/01/17 06:12:27;;;;;;;12.10;7.53;;;;;;;-2.16;100.00;99349.53;10410630;28;20053;-75
2024/01/17 06:17:28;;;;;;;12.33;7.70;;;;;;;-2.15;100.00;99346.66;10417605;28;20061;-75
2024/01/17 06:22:28;;;;;;;16.70;7.47;;;;;;;-2.18;100.00;99343.53;10418391;28;20055;-75
2024/01/17 06:27:29;;;;;;;10.80;7.37;;;;;;;-2.22;100.00;99339.59;10418212;28;20041;-75
2024/01/17 06:32:30;;;;;;;14.03;7.77;;;;;;;-2.22;100.00;99345.81;10417583;28;20037;-75
2024/01/17 06:37:31;;;;;;;15.50;6.73;;;;;;;-2.30;100.00;99327.16;10418714;28;20045;-75
2024/01/17 06:42:31;;;;;;;9.33;6.37;;;;;;;-2.32;100.00;99340.00;10416843;28;20071;-76
2024/01/17 06:47:32;;;;;;;11.47;6.83;;;;;;;-2.36;100.00;99334.19;10418991;28;20456;-76
2024/01/17 06:52:32;;;;;;;11.60;7.03;;;;;;;-2.39;100.00;99329.22;10418425;28;20501;-75
2024/01/17 06:57:33;;;;;;;15.30;7.60;;;;;;;-2.42;100.00;99323.41;10417628;28;20190;-75
2024/01/17 07:02:34;;;;;;;14.70;7.30;;;;;;;-2.46;100.00;99328.38;10417171;28;20052;-75
2024/01/17 07:07:34;;;;;;;10.60;7.03;;;;;;;-2.52;100.00;99334.59;10409203;28;20038;-72
2024/01/17 07:12:34;;;;;;;14.53;8.30;;;;;;;-2.60;100.00;99329.41;10417739;28;20112;-70
2024/01/17 07:17:35;;;;;;;21.50;8.90;;;;;;;-2.68;100.00;99334.00;10417758;28;20046;-72
2024/01/17 07:22:42;;;;;;;14.17;8.40;;;;;;;-2.84;100.00;99319.03;10432157;28;20033;-72
2024/01/17 07:27:44;;;;;;;15.97;8.17;;;;;;;-3.01;100.00;99308.88;10417906;28;20102;-72
2024/01/17 07:32:45;;;;;;;17.07;8.90;;;;;;;-2.98;100.00;99314.66;10390611;28;20509;-71
2024/01/17 07:37:45;;;;;;;19.47;8.50;;;;;;;-3.00;100.00;99305.16;10413951;28;20396;-72
2024/01/17 07:42:46;;;;;;;14.47;8.03;;;;;;;-3.07;100.00;99305.16;10416682;28;20042;-72
2024/01/17 07:47:47;;;;;;;13.97;8.70;;;;;;;-3.16;100.00;99292.88;10416348;28;20045;-72
2024/01/17 07:52:47;;;;;;;16.37;9.03;;;;;;;-3.24;100.00;99288.56;10413090;28;20053;-72
2024/01/17 07:57:48;;;;;;;20.00;9.77;;;;;;;-3.25;100.00;99276.09;10414794;28;20041;-73
2024/01/17 08:02:48;;;;;;;16.20;8.60;;;;;;;-3.29;100.00;99264.09;10410984;28;20337;-72
2024/01/17 08:07:49;;;;;;;18.93;10.17;;;;;;;-3.30;100.00;99252.50;10413040;28;20041;-73
2024/01/17 08:12:49;;;;;;;17.33;9.23;;;;;;;-3.31;100.00;99244.63;10411346;28;20540;-71
2024/01/17 08:17:50;;;;;;;16.20;8.60;;;;;;;-3.25;100.00;99243.81;10397192;28;20515;-72
2024/01/17 08:22:51;;;;;;;12.73;7.37;;;;;;;-3.23;100.00;99241.75;10412880;28;20068;-73
2024/01/17 08:27:54;;;;;;;13.27;8.07;;;;;;;-3.20;100.00;99238.66;10414384;28;20044;-73
2024/01/17 08:32:54;;;;;;;16.53;8.20;;;;;;;-3.17;100.00;99235.53;10404318;28;20037;-73
2024/01/17 08:37:55;;;;;;;15.03;8.07;;;;;;;-3.15;100.00;99230.78;10403375;28;20580;-73
2024/01/17 08:42:55;;;;;;;11.23;6.90;;;;;;;-3.15;100.00;99217.31;10404253;28;20038;-74
2024/01/17 08:47:55;;;;;;;19.03;7.47;;;;;;;-3.16;100.00;99206.75;10414222;28;20112;-73
2024/01/17 08:52:56;;;;;;;12.77;6.73;;;;;;;-3.12;100.00;99210.69;10412574;28;20049;-74
2024/01/17 08:57:56;;;;;;;18.50;7.47;;;;;;;-2.97;100.00;99214.03;10404061;28;20045;-73
2024/01/17 09:02:57;;;;;;;11.83;7.20;;;;;;;-2.94;100.00;99228.94;10412417;28;20053;-73
2024/01/17 09:07:58;;;;;;;11.53;7.30;;;;;;;-2.88;100.00;99220.84;10435033;28;20044;-73
2024/01/17 09:12:58;;;;;;;12.30;6.83;;;;;;;-2.82;100.00;99200.34;10419408;28;20033;-73
2024/01/17 09:17:59;;;;;;;10.17;6.40;;;;;;;-3.05;100.00;99180.06;10421406;28;20416;-74
2024/01/17 09:22:59;;;;;;;12.83;7.83;;;;;;;-2.76;100.00;99204.91;10419615;28;20451;-74
2024/01/17 09:28:00;;;;;;;9.10;5.83;;;;;;;-2.67;100.00;99210.88;10420210;28;20030;-74
2024/01/17 09:33:01;;;;;;;14.57;6.93;;;;;;;-2.70;100.00;99201.38;10420456;28;20040;-73
2024/01/17 09:38:02;;;;;;;13.27;6.53;;;;;;;-2.64;100.00;99211.31;10418311;28;20064;-74
2024/01/17 09:43:04;;;;;;;15.50;7.20;;;;;;;-2.57;100.00;99207.78;10417742;28;20044;-73
2024/01/17 09:48:05;;;;;;;13.93;7.57;;;;;;;-2.41;100.00;99212.72;10418347;28;20049;-73
2024/01/17 09:53:10;;;;;;;12.27;6.23;;;;;;;-2.30;100.00;99203.97;10417084;28;20132;-75
2024/01/17 09:58:10;;;;;;;7.63;5.27;;;;;;;-2.22;100.00;99202.09;10416833;28;20335;-74
2024/01/17 10:03:11;;;;;;;14.37;7.47;;;;;;;-2.09;100.00;99194.81;10416652;28;20033;-74
2024/01/17 10:08:14;;;;;;;13.13;6.83;;;;;;;-1.92;100.00;99195.16;10412889;28;20048;-73
2024/01/17 10:13:14;;;;;;;13.83;7.30;;;;;;;-1.90;100.00;99192.22;10417283;28;20033;-74
2024/01/17 10:18:15;;;;;;;13.37;6.37;;;;;;;-1.87;100.00;99176.44;10415979;28;20045;-73
2024/01/17 10:23:15;;;;;;;12.60;7.27;;;;;;;-2.30;100.00;99104.25;10407702;28;20052;-73
2024/01/17 10:28:16;;;;;;;16.33;7.57;;;;;;;-1.68;100.00;99169.28;10419809;28;20489;-73
2024/01/17 10:33:16;;;;;;;18.10;7.23;;;;;;;-1.70;100.00;99133.59;10398770;28;20535;-73
2024/01/17 10:38:17;;;;;;;15.27;6.93;;;;;;;-1.53;100.00;99150.09;10414183;28;20105;-73
2024/01/17 10:43:17;;;;;;;12.63;6.83;;;;;;;-1.45;100.00;99130.94;10415555;28;20500;-73
2024/01/17 10:48:18;;;;;;;10.87;6.13;;;;;;;-1.48;100.00;99125.16;10416120;28;20037;-74
2024/01/17 10:53:19;;;;;;;12.37;6.43;;;;;;;-1.38;100.00;99116.56;10415805;28;20052;-72
2024/01/17 10:58:19;;;;;;;15.37;6.73;;;;;;;-1.24;100.00;99101.91;10429980;28;20045;-73
2024/01/17 11:03:20;;;;;;;12.63;6.63;;;;;;;-1.37;100.00;99119.03;10412719;28;20033;-73
2024/01/17 11:08:20;;;;;;;15.07;5.93;;;;;;;-1.27;100.00;99103.16;10377520;28;20050;-73
2024/01/17 11:13:21;;;;;;;10.13;6.27;;;;;;;-1.30;100.00;99089.28;10413431;28;20033;-73
2024/01/17 11:18:22;;;;;;;12.33;6.70;;;;;;;-1.15;100.00;99097.88;10410996;28;20045;-72
2024/01/17 11:23:33;;;;;;;11.00;6.50;;;;;;;-1.17;100.00;99086.47;10412243;28;20033;-71
2024/01/17 11:28:58;;;;;;;11.93;6.00;;;;;;;-1.15;100.00;99070.88;10409127;28;20578;-73
2024/01/17 11:34:08;;;;;;;13.67;6.93;;;;;;;-1.25;100.00;99065.16;10500845;28;20429;-72
2024/01/17 11:39:10;;;;;;;9.63;6.03;;;;;;;-1.23;100.00;99046.84;10488466;28;20454;-72
2024/01/17 11:44:11;;;;;;;9.30;5.67;;;;;;;-1.19;100.00;99039.97;10493114;28;20029;-72
2024/01/17 11:49:14;;;;;;;13.33;7.33;;;;;;;-0.89;100.00;99063.53;10477677;28;20037;-72
2024/01/17 11:54:14;;;;;;;11.60;6.47;;;;;;;-0.89;100.00;99047.34;10464499;28;20037;-72
2024/01/17 11:59:16;;;;;;;10.43;5.37;;;;;;;-0.90;100.00;99037.59;10492036;28;20037;-72
2024/01/17 12:04:18;;;;;;;14.47;6.67;;;;;;;-0.80;100.00;99039.78;10479505;28;20156;-72
2024/01/17 12:09:18;;;;;;;12.77;7.10;;;;;;;-0.85;100.00;99029.63;10452312;28;20096;-72
2024/01/17 12:14:19;;;;;;;10.07;5.77;;;;;;;-0.85;100.00;99025.06;10467863;28;20052;-72
2024/01/17 12:19:19;;;;;;;15.77;6.40;;;;;;;-0.99;100.00;98993.00;10493843;28;20044;-72
2024/01/17 12:24:20;;;;;;;10.97;5.77;;;;;;;-1.04;100.00;98993.69;10426441;28;20044;-71
2024/01/17 12:29:20;;;;;;;10.97;5.70;;;;;;;-1.00;100.00;99002.19;10469935;28;20037;-73
2024/01/17 12:34:21;;;;;;;15.80;7.00;;;;;;;-1.04;100.00;98999.91;10472776;28;20060;-72
2024/01/17 12:39:22;;;;;;;10.43;5.97;;;;;;;-1.04;100.00;98996.41;10459733;28;20053;-72
2024/01/17 12:44:23;;;;;;;12.53;5.77;;;;;;;-1.12;100.00;98984.00;10455079;28;20071;-72
2024/01/17 12:49:23;;;;;;;12.27;5.57;;;;;;;-1.18;100.00;98974.09;10435271;28;20072;-73
2024/01/17 12:54:24;;;;;;;11.47;5.87;;;;;;;-1.28;100.00;98953.03;10433028;28;20048;-73
2024/01/17 12:59:24;;;;;;;12.53;6.93;;;;;;;-1.23;100.00;98963.97;10449719;28;20041;-72
2024/01/17 13:04:25;;;;;;;12.83;6.13;;;;;;;-1.23;100.00;98961.28;10417098;28;20060;-72
2024/01/17 13:09:28;;;;;;;10.40;5.93;;;;;;;-1.24;100.00;98948.84;10460317;28;20064;-72
2024/01/17 13:14:29;;;;;;;9.20;5.63;;;;;;;-1.22;100.00;98944.03;10454550;28;20084;-72
2024/01/17 13:19:30;;;;;;;12.73;5.77;;;;;;;-1.11;100.00;98944.34;10446576;28;20041;-72
2024/01/17 13:24:32;;;;;;;13.90;5.97;;;;;;;-1.14;100.00;98921.28;10445746;28;20048;-71
2024/01/17 13:29:33;;;;;;;13.30;6.83;;;;;;;-1.00;100.00;98935.47;10424723;28;20054;-71
2024/01/17 13:34:34;;;;;;;12.03;6.27;;;;;;;-0.94;100.00;98931.03;10426898;28;20037;-72
2024/01/17 13:39:35;;;;;;;12.50;5.77;;;;;;;-0.97;100.00;98923.38;10437315;28;20101;-70
2024/01/17 13:44:35;;;;;;;12.43;6.33;;;;;;;-0.83;100.00;98928.41;10425786;28;21608;-70
2024/01/17 13:49:37;;;;;;;12.27;6.37;;;;;;;-0.74;100.00;98925.38;10452389;28;20049;-72
2024/01/17 13:54:39;;;;;;;10.07;5.63;;;;;;;-0.71;100.00;98914.94;10421643;28;20036;-71
2024/01/17 13:59:41;;;;;;;11.27;6.50;;;;;;;-0.74;100.00;98904.59;10432394;28;20052;-71
2024/01/17 14:04:42;;;;;;;10.23;6.77;;;;;;;-0.66;100.00;98915.09;10487975;28;20033;-71
2024/01/17 14:09:44;;;;;;;10.93;6.03;;;;;;;-0.66;100.00;98915.09;10418254;28;20045;-71
2024/01/17 14:14:46;;;;;;;8.57;5.47;;;;;;;-0.69;100.00;98909.31;10451209;28;20040;-71
2024/01/17 14:19:48;;;;;;;12.23;6.83;;;;;;;-0.71;100.00;98908.72;10462070;28;20041;-71
2024/01/17 14:24:49;;;;;;;12.17;6.17;;;;;;;-0.82;100.00;98913.00;10461156;28;20041;-73
2024/01/17 14:29:50;;;;;;;10.13;5.47;;;;;;;-0.76;100.00;98901.28;10462379;28;20052;-73
2024/01/17 14:34:50;;;;;;;19.47;6.10;;;;;;;-0.92;100.00;98888.41;10458381;28;20032;-73
2024/01/17 14:39:51;;;;;;;10.37;6.00;;;;;;;-0.91;100.00;98884.66;10408783;28;20044;-73
2024/01/17 14:44:51;;;;;;;11.77;6.30;;;;;;;-0.90;100.00;98889.03;10431195;28;20037;-73
2024/01/17 14:49:52;;;;;;;11.70;6.47;;;;;;;-0.92;100.00;98891.13;10430707;28;20045;-73
2024/01/17 14:54:52;;;;;;;14.60;6.87;;;;;;;-0.86;100.00;98907.25;10421124;28;20041;-72
2024/01/17 14:59:54;;;;;;;13.30;5.73;;;;;;;-0.87;100.00;98911.00;10446185;28;20033;-72
2024/01/17 15:04:54;;;;;;;14.57;5.90;;;;;;;-0.88;100.00;98900.41;10414244;28;20038;-73
2024/01/17 15:09:55;;;;;;;14.37;6.97;;;;;;;-0.91;100.00;98898.16;10484907;28;20048;-72
2024/01/17 15:14:55;;;;;;;11.00;6.53;;;;;;;-0.93;100.00;98890.31;10453145;28;20071;-73
2024/01/17 15:19:56;;;;;;;13.47;6.93;;;;;;;-0.97;100.00;98882.88;10455192;28;20060;-73
2024/01/17 15:24:56;;;;;;;18.33;7.57;;;;;;;-1.00;100.00;98883.34;10474539;28;20045;-72
2024/01/17 15:29:57;;;;;;;13.90;7.67;;;;;;;-0.98;100.00;98887.44;10423682;28;20042;-73
2024/01/17 15:34:58;;;;;;;12.40;6.97;;;;;;;-0.98;100.00;98892.03;10437516;28;20048;-73
2024/01/17 15:40:00;;;;;;;13.00;7.10;;;;;;;-1.00;100.00;98899.53;10467787;28;20084;-70
2024/01/17 15:45:00;;;;;;;11.87;6.87;;;;;;;-1.08;100.00;98887.97;10456426;28;20057;-69
2024/01/17 15:50:01;;;;;;;14.90;6.33;;;;;;;-1.15;100.00;98892.66;10454597;28;20037;-72
2024/01/17 15:55:01;;;;;;;22.90;8.47;;;;;;;-1.15;100.00;98895.34;10473889;28;20116;-72
2024/01/17 16:00:03;;;;;;;15.63;7.53;;;;;;;-1.16;100.00;98898.28;10447334;28;20481;-71
2024/01/17 16:05:03;;;;;;;13.03;7.80;;;;;;;-1.22;100.00;98891.91;10437287;28;20174;-72
2024/01/17 16:10:04;;;;;;;13.77;7.37;;;;;;;-1.31;100.00;98882.47;10453522;28;20471;-72
2024/01/17 16:15:06;;;;;;;14.40;8.13;;;;;;;-1.24;100.00;98904.78;10400673;28;20033;-71
2024/01/17 16:20:08;;;;;;;17.97;8.03;;;;;;;-1.28;100.00;98893.66;10432143;28;20062;-72
2024/01/17 16:25:08;;;;;;;13.60;7.67;;;;;;;-1.23;100.00;98903.75;10449984;28;20037;-72
2024/01/17 16:30:10;;;;;;;15.07;7.83;;;;;;;-1.29;100.00;98896.56;10465906;28;20037;-70
2024/01/17 16:35:11;;;;;;;16.63;7.83;;;;;;;-1.27;100.00;98910.66;10463474;28;20091;-70
2024/01/17 16:40:15;;;;;;;21.97;8.37;;;;;;;-1.27;100.00;98910.66;10434594;28;20112;-70
2024/01/17 16:45:15;;;;;;;14.83;8.40;;;;;;;-1.29;100.00;98908.19;10457823;28;20028;-71
2024/01/17 16:50:18;;;;;;;14.33;7.30;;;;;;;-1.28;100.00;98904.44;10461300;28;20472;-71
2024/01/17 16:55:19;;;;;;;15.23;7.63;;;;;;;-1.26;100.00;98906.91;10462557;28;20045;-71
2024/01/17 17:00:19;;;;;;;11.63;7.07;;;;;;;-1.27;100.00;98916.06;10434968;28;20079;-70
2024/01/17 17:05:21;;;;;;;15.80;7.50;;;;;;;-1.27;100.00;98910.66;10459490;28;20033;-71
2024/01/17 17:10:22;;;;;;;12.60;8.37;;;;;;;-1.37;100.00;98894.16;10456463;28;20040;-71
2024/01/17 17:15:22;;;;;;;13.90;7.90;;;;;;;-1.36;100.00;98922.81;10480151;28;20037;-70
2024/01/17 17:20:24;;;;;;;15.97;8.60;;;;;;;-1.43;100.00;98909.38;10481288;28;20043;-71
2024/01/17 17:25:24;;;;;;;17.40;8.57;;;;;;;-1.45;100.00;98920.41;10435301;28;20480;-69
2024/01/17 17:30:25;;;;;;;12.73;8.80;;;;;;;-1.47;100.00;98910.88;10466332;28;20067;-70
2024/01/17 17:35:25;;;;;;;17.37;8.73;;;;;;;-1.52;100.00;98916.13;10458983;28;20056;-70
2024/01/17 17:40:26;;;;;;;15.17;9.30;;;;;;;-1.51;100.00;98926.72;10485807;28;20043;-71
2024/01/17 17:45:26;;;;;;;19.70;10.00;;;;;;;-1.51;100.00;98923.16;10444065;28;20033;-71
2024/01/17 17:50:27;;;;;;;17.47;9.70;;;;;;;-1.53;100.00;98928.81;10453384;28;20051;-72
2024/01/17 17:55:28;;;;;;;21.43;12.07;;;;;;;-1.52;100.00;98929.63;10465967;28;20113;-70
2024/01/17 18:00:29;;;;;;;19.70;9.80;;;;;;;-1.42;100.00;98922.66;10427676;28;20483;-71
2024/01/17 18:05:30;;;;;;;18.87;10.40;;;;;;;-1.38;100.00;98922.22;10419947;28;20037;-70
2024/01/17 18:10:31;;;;;;;19.47;9.73;;;;;;;-1.50;100.00;98906.75;10434499;28;20037;-71
2024/01/17 18:15:33;;;;;;;15.67;10.93;;;;;;;-1.40;100.00;98924.31;10466908;28;20044;-72
2024/01/17 18:20:34;;;;;;;19.43;9.80;;;;;;;-1.45;100.00;98933.91;10387748;28;20049;-71
2024/01/17 18:25:34;;;;;;;17.90;10.23;;;;;;;-1.52;100.00;98930.44;10481670;28;20037;-71
2024/01/17 18:30:35;;;;;;;19.50;10.20;;;;;;;-1.60;100.00;98940.72;10450424;28;20044;-71
2024/01/17 18:35:36;;;;;;;16.33;9.83;;;;;;;-1.54;100.00;98942.53;10445732;28;20485;-72
2024/01/17 18:40:37;;;;;;;17.67;9.37;;;;;;;-1.57;100.00;98954.59;10439461;28;20101;-72
2024/01/17 18:45:37;;;;;;;17.70;9.63;;;;;;;-1.57;100.00;98953.75;10465491;28;20033;-71
2024/01/17 18:50:37;;;;;;;16.90;10.47;;;;;;;-1.56;100.00;98952.72;10456700;28;20049;-71
2024/01/17 18:55:40;;;;;;;16.30;10.17;;;;;;;-1.59;100.00;98956.69;10473672;28;20053;-71
2024/01/17 19:00:41;;;;;;;17.73;10.07;;;;;;;-1.62;100.00;98965.22;10483029;28;20029;-72
2024/01/17 19:05:41;;;;;;;19.03;9.97;;;;;;;-1.68;100.00;98980.41;10457120;28;20037;-71
2024/01/17 19:10:42;;;;;;;20.57;10.70;;;;;;;-1.78;100.00;98979.25;10449541;28;20057;-72
2024/01/17 19:15:44;;;;;;;24.07;11.53;;;;;;;-1.91;100.00;98983.72;10471511;28;20139;-72
2024/01/17 19:20:48;;;;;;;16.37;11.20;;;;;;;-2.08;100.00;98986.13;10431441;28;20044;-72
2024/01/17 19:25:49;;;;;;;18.87;11.53;;;;;;;-2.19;100.00;98989.53;10417060;28;20048;-71
2024/01/17 19:30:49;;;;;;;19.47;12.60;;;;;;;-2.35;100.00;98993.56;10473605;28;20070;-71
2024/01/17 19:35:50;;;;;;;27.33;13.77;;;;;;;-2.34;100.00;99005.16;10490949;28;20103;-72
2024/01/17 19:40:52;;;;;;;25.37;13.77;;;;;;;-2.35;100.00;99012.44;10445729;28;20041;-72
2024/01/17 19:45:53;;;;;;;21.40;14.27;;;;;;;-2.44;100.00;98994.84;10471720;28;20033;-72
2024/01/17 19:50:54;;;;;;;29.20;16.70;;;;;;;-2.36;100.00;99009.94;10447380;28;20056;-71
2024/01/17 19:55:55;;;;;;;28.20;16.20;;;;;;;-2.35;100.00;99014.31;10480969;28;20093;-71
2024/01/17 20:00:56;;;;;;;26.83;16.00;;;;;;;-2.39;100.00;99003.13;10456783;28;20048;-71
2024/01/17 20:05:59;;;;;;;25.03;15.17;;;;;;;-2.45;100.00;99004.00;10438185;28;20036;-71
2024/01/17 20:11:03;;;;;;;23.73;15.43;;;;;;;-2.57;100.00;99021.88;10446860;28;20067;-72
2024/01/17 20:16:04;;;;;;;30.87;16.87;;;;;;;-2.69;100.00;99027.94;10446793;28;20037;-71
2024/01/17 20:21:04;;;;;;;32.33;17.97;;;;;;;-2.82;100.00;99017.22;10465688;28;20057;-72
2024/01/17 20:26:05;;;;;;;32.83;21.23;;;;;;;-2.98;100.00;99009.59;10414415;28;20043;-72
2024/01/17 20:31:05;;;;;;;37.43;21.23;;;;;;;-2.92;100.00;99027.59;10429321;28;20033;-72
2024/01/17 20:36:07;;;;;;;34.47;19.53;;;;;;;-2.98;100.00;99037.34;10445361;28;20121;-71
2024/01/17 20:41:16;;;;;;;38.77;20.50;;;;;;;-3.12;100.00;99011.50;10446039;28;20037;-72
2024/01/17 20:46:18;;;;;;;31.70;19.33;;;;;;;-3.08;100.00;99031.56;10446561;28;20045;-71
2024/01/17 20:51:24;;;;;;;39.90;21.27;;;;;;;-3.07;100.00;99035.94;10438992;28;20033;-73
2024/01/17 20:56:25;;;;;;;37.53;22.03;;;;;;;-2.95;100.00;99049.56;10445197;28;20041;-72
2024/01/17 21:01:25;;;;;;;36.37;22.77;;;;;;;-2.98;100.00;99055.38;10455740;28;20087;-72
2024/01/17 21:06:26;;;;;;;36.17;22.13;;;;;;;-2.98;100.00;99056.19;10468352;28;20508;-72
2024/01/17 21:11:26;;;;;;;40.87;22.93;;;;;;;-2.90;100.00;99074.81;10444612;28;20032;-72
2024/01/17 21:16:27;;;;;;;34.83;20.83;;;;;;;-2.88;100.00;99077.28;10476925;28;20096;-72
2024/01/17 21:21:28;;;;;;;46.00;22.63;;;;;;;-2.99;100.00;99067.19;10482109;28;20076;-72
2024/01/17 21:26:32;;;;;;;41.43;23.10;;;;;;;-2.99;100.00;99077.97;10467422;28;20531;-72
2024/01/17 21:31:36;;;;;;;37.97;22.90;;;;;;;-3.01;100.00;99090.81;10413488;28;20074;-72
2024/01/17 21:36:37;;;;;;;39.40;23.67;;;;;;;-2.96;100.00;99101.75;10460030;28;20072;-72
2024/01/17 21:41:38;;;;;;;34.43;22.63;;;;;;;-3.00;100.00;99092.44;10421481;28;20041;-72
2024/01/17 21:46:40;;;;;;;41.47;24.20;;;;;;;-2.96;100.00;99097.19;10444170;28;20037;-72
2024/01/17 21:51:40;;;;;;;39.63;23.00;;;;;;;-3.00;100.00;99106.72;10444977;28;20048;-71
2024/01/17 21:56:41;;;;;;;46.60;23.83;;;;;;;-2.97;100.00;99108.19;10460813;28;20519;-72
2024/01/17 22:01:41;;;;;;;40.77;22.90;;;;;;;-2.97;100.00;99109.00;10423977;28;20033;-72
2024/01/17 22:06:42;;;;;;;39.70;21.90;;;;;;;-3.06;100.00;99121.88;10443676;28;20082;-72
2024/01/17 22:11:42;;;;;;;40.43;23.27;;;;;;;-2.98;100.00;99160.38;10449428;28;20040;-73
2024/01/17 22:16:43;;;;;;;38.70;21.27;;;;;;;-3.10;100.00;99120.63;10445537;28;20040;-72
2024/01/17 22:21:43;;;;;;;41.37;22.43;;;;;;;-3.32;100.00;99109.25;10433519;28;20040;-73
2024/01/17 22:26:44;;;;;;;32.93;20.67;;;;;;;-3.36;100.00;99113.41;10463070;28;20033;-72
2024/01/17 22:31:44;;;;;;;40.60;21.77;;;;;;;-3.36;100.00;99117.94;10466240;28;20037;-72
2024/01/17 22:36:45;;;;;;;41.27;21.77;;;;;;;-3.41;100.00;99134.72;10480771;28;20116;-73
2024/01/17 22:41:45;;;;;;;33.30;19.30;;;;;;;-3.52;100.00;99136.16;10434805;28;20072;-73
2024/01/17 22:46:46;;;;;;;43.30;21.53;;;;;;;-3.59;100.00;99140.69;10466176;28;20071;-71